sensor_id;sensor_type;location;lat;lon;timestamp;pressure;altitude;pressure_sealevel;temperature;humidity
9695;BME280;4690;52.422;13.486;2023-07-20T00:06:48;100739.84;;;19.41;89.91
9695;BME280;4690;52.422;13.486;2023-07-20T00:09:14;100741.25;;;19.43;89.72
9695;BME280;4690;52.422;13.486;2023-07-20T00:11:40;100744.84;;;19.44;89.98
9695;BME280;4690;52.422;13.486;2023-07-20T00:14:13;100748.16;;;19.46;90.19
9695;BME280;4690;52.422;13.486;2023-07-20T00:16:39;100746.22;;;19.46;89.98
9695;BME280;4690;52.422;13.486;2023-07-20T00:19:04;100749.03;;;19.41;90.07
9695;BME280;4690;52.422;13.486;2023-07-20T00:21:32;100751.22;;;19.44;89.74
9695;BME280;4690;52.422;13.486;2023-07-20T00:23:58;100740.97;;;19.40;89.50
9695;BME280;4690;52.422;13.486;2023-07-20T00:26:23;100742.09;;;19.39;89.70
9695;BME280;4690;52.422;13.486;2023-07-20T00:28:50;100744.03;;;19.38;89.64
9695;BME280;4690;52.422;13.486;2023-07-20T00:31:17;100745.16;;;19.37;89.63
9695;BME280;4690;52.422;13.486;2023-07-20T00:33:43;100742.66;;;19.36;89.28
9695;BME280;4690;52.422;13.486;2023-07-20T00:36:09;100742.94;;;19.34;89.21
9695;BME280;4690;52.422;13.486;2023-07-20T00:38:34;100749.03;;;19.36;89.47
9695;BME280;4690;52.422;13.486;2023-07-20T00:41:00;100744.63;;;19.35;89.08
9695;BME280;4690;52.422;13.486;2023-07-20T00:43:26;100742.94;;;19.34;88.64
9695;BME280;4690;52.422;13.486;2023-07-20T00:45:52;100743.50;;;19.31;89.15
9695;BME280;4690;52.422;13.486;2023-07-20T00:48:18;100753.53;;;19.32;89.06
9695;BME280;4690;52.422;13.486;2023-07-20T00:50:45;100747.41;;;19.30;88.54
9695;BME280;4690;52.422;13.486;2023-07-20T00:53:11;100755.19;;;19.28;88.42
9695;BME280;4690;52.422;13.486;2023-07-20T00:55:37;100750.50;;;19.23;88.67
9695;BME280;4690;52.422;13.486;2023-07-20T00:58:04;100745.78;;;19.24;88.38
9695;BME280;4690;52.422;13.486;2023-07-20T01:00:30;100744.41;;;19.21;88.68
9695;BME280;4690;52.422;13.486;2023-07-20T01:02:56;100744.66;;;19.20;88.76
9695;BME280;4690;52.422;13.486;2023-07-20T01:14:24;100758.06;;;19.13;88.57
9695;BME280;4690;52.422;13.486;2023-07-20T01:16:51;100757.50;;;19.11;88.70
9695;BME280;4690;52.422;13.486;2023-07-20T01:19:20;100761.41;;;19.04;89.21
9695;BME280;4690;52.422;13.486;2023-07-20T01:22:06;100760.88;;;18.97;89.30
9695;BME280;4690;52.422;13.486;2023-07-20T01:32:59;100762.22;;;19.05;89.08
9695;BME280;4690;52.422;13.486;2023-07-20T01:35:29;100765.31;;;19.03;89.36
9695;BME280;4690;52.422;13.486;2023-07-20T01:37:56;100756.69;;;19.05;89.58
9695;BME280;4690;52.422;13.486;2023-07-20T01:40:25;100761.66;;;19.08;89.72
9695;BME280;4690;52.422;13.486;2023-07-20T01:42:51;100768.34;;;19.07;89.40
9695;BME280;4690;52.422;13.486;2023-07-20T01:45:18;100757.25;;;19.07;89.95
9695;BME280;4690;52.422;13.486;2023-07-20T01:47:43;100762.25;;;19.00;89.80
9695;BME280;4690;52.422;13.486;2023-07-20T01:50:09;100756.13;;;19.03;89.55
9695;BME280;4690;52.422;13.486;2023-07-20T01:52:35;100758.63;;;19.04;89.24
9695;BME280;4690;52.422;13.486;2023-07-20T01:55:01;100757.81;;;19.04;89.07
9695;BME280;4690;52.422;13.486;2023-07-20T01:57:27;100753.91;;;19.05;89.35
9695;BME280;4690;52.422;13.486;2023-07-20T01:59:53;100757.25;;;19.02;89.54
9695;BME280;4690;52.422;13.486;2023-07-20T02:02:18;100760.84;;;19.02;89.73
9695;BME280;4690;52.422;13.486;2023-07-20T02:04:46;100763.63;;;19.02;89.30
9695;BME280;4690;52.422;13.486;2023-07-20T02:07:12;100756.44;;;19.01;89.12
9695;BME280;4690;52.422;13.486;2023-07-20T02:09:37;100753.06;;;19.04;89.02
9695;BME280;4690;52.422;13.486;2023-07-20T02:12:03;100754.47;;;19.02;88.98
9695;BME280;4690;52.422;13.486;2023-07-20T02:14:29;100759.19;;;19.01;88.70
9695;BME280;4690;52.422;13.486;2023-07-20T02:16:55;100756.69;;;19.00;88.00
9695;BME280;4690;52.422;13.486;2023-07-20T02:19:25;100753.38;;;18.98;86.71
9695;BME280;4690;52.422;13.486;2023-07-20T02:21:52;100752.53;;;18.97;86.42
9695;BME280;4690;52.422;13.486;2023-07-20T02:24:18;100752.84;;;18.96;86.30
9695;BME280;4690;52.422;13.486;2023-07-20T02:26:44;100754.22;;;18.93;85.79
9695;BME280;4690;52.422;13.486;2023-07-20T02:29:10;100755.34;;;18.92;85.61
9695;BME280;4690;52.422;13.486;2023-07-20T02:31:37;100752.59;;;18.87;85.40
9695;BME280;4690;52.422;13.486;2023-07-20T02:34:05;100753.97;;;18.85;84.78
9695;BME280;4690;52.422;13.486;2023-07-20T02:36:32;100747.31;;;18.80;83.81
9695;BME280;4690;52.422;13.486;2023-07-20T02:39:01;100743.44;;;18.76;83.82
9695;BME280;4690;52.422;13.486;2023-07-20T02:41:33;100752.56;;;18.72;84.01
9695;BME280;4690;52.422;13.486;2023-07-20T02:43:59;100745.38;;;18.71;84.07
9695;BME280;4690;52.422;13.486;2023-07-20T02:46:25;100758.44;;;18.70;83.61
9695;BME280;4690;52.422;13.486;2023-07-20T02:48:51;100761.75;;;18.67;83.92
9695;BME280;4690;52.422;13.486;2023-07-20T02:51:17;100769.28;;;18.62;83.33
9695;BME280;4690;52.422;13.486;2023-07-20T02:53:43;100773.13;;;18.60;83.58
9695;BME280;4690;52.422;13.486;2023-07-20T02:56:08;100770.38;;;18.60;83.24
9695;BME280;4690;52.422;13.486;2023-07-20T02:58:34;100778.16;;;18.58;83.27
9695;BME280;4690;52.422;13.486;2023-07-20T03:01:04;100776.78;;;18.56;83.88
9695;BME280;4690;52.422;13.486;2023-07-20T03:03:29;100773.44;;;18.49;84.38
9695;BME280;4690;52.422;13.486;2023-07-20T03:05:55;100789.53;;;18.52;84.61
9695;BME280;4690;52.422;13.486;2023-07-20T03:08:23;100789.53;;;18.57;84.23
9695;BME280;4690;52.422;13.486;2023-07-20T03:10:49;100788.41;;;18.58;84.03
9695;BME280;4690;52.422;13.486;2023-07-20T03:13:15;100790.91;;;18.59;83.82
9695;BME280;4690;52.422;13.486;2023-07-20T03:15:41;100795.06;;;18.62;83.87
9695;BME280;4690;52.422;13.486;2023-07-20T03:18:07;100789.22;;;18.64;83.90
9695;BME280;4690;52.422;13.486;2023-07-20T03:20:35;100790.09;;;18.64;83.75
9695;BME280;4690;52.422;13.486;2023-07-20T03:23:01;100798.69;;;18.63;83.54
9695;BME280;4690;52.422;13.486;2023-07-20T03:25:27;100793.69;;;18.65;83.21
9695;BME280;4690;52.422;13.486;2023-07-20T03:27:52;100796.47;;;18.65;82.89
9695;BME280;4690;52.422;13.486;2023-07-20T03:30:18;100797.59;;;18.58;82.60
9695;BME280;4690;52.422;13.486;2023-07-20T03:32:44;100799.81;;;18.56;82.75
9695;BME280;4690;52.422;13.486;2023-07-20T03:35:10;100805.91;;;18.58;82.96
9695;BME280;4690;52.422;13.486;2023-07-20T03:37:35;100800.63;;;18.52;82.41
9695;BME280;4690;52.422;13.486;2023-07-20T03:40:02;100794.50;;;18.50;82.59
9695;BME280;4690;52.422;13.486;2023-07-20T03:42:30;100797.59;;;18.48;82.46
9695;BME280;4690;52.422;13.486;2023-07-20T03:44:56;100795.63;;;18.49;82.04
9695;BME280;4690;52.422;13.486;2023-07-20T03:47:22;100794.25;;;18.46;81.91
9695;BME280;4690;52.422;13.486;2023-07-20T03:49:47;100803.13;;;18.48;81.82
9695;BME280;4690;52.422;13.486;2023-07-20T03:52:13;100800.38;;;18.48;82.51
9695;BME280;4690;52.422;13.486;2023-07-20T03:54:39;100797.28;;;18.50;82.54
9695;BME280;4690;52.422;13.486;2023-07-20T03:57:05;100790.09;;;18.49;82.30
9695;BME280;4690;52.422;13.486;2023-07-20T03:59:30;100798.97;;;18.46;82.47
9695;BME280;4690;52.422;13.486;2023-07-20T04:01:56;100800.34;;;18.43;83.05
9695;BME280;4690;52.422;13.486;2023-07-20T04:04:22;100802.00;;;18.44;82.65
9695;BME280;4690;52.422;13.486;2023-07-20T04:06:47;100807.31;;;18.46;82.48
9695;BME280;4690;52.422;13.486;2023-07-20T04:09:13;100809.81;;;18.47;82.23
9695;BME280;4690;52.422;13.486;2023-07-20T04:11:39;100810.06;;;18.41;82.60
9695;BME280;4690;52.422;13.486;2023-07-20T04:14:06;100807.59;;;18.39;82.77
9695;BME280;4690;52.422;13.486;2023-07-20T04:16:31;100809.25;;;18.40;82.55
9695;BME280;4690;52.422;13.486;2023-07-20T04:18:58;100812.84;;;18.46;82.95
9695;BME280;4690;52.422;13.486;2023-07-20T04:21:28;100807.03;;;18.47;83.02
9695;BME280;4690;52.422;13.486;2023-07-20T04:23:54;100812.56;;;18.52;82.77
9695;BME280;4690;52.422;13.486;2023-07-20T04:26:20;100814.50;;;18.57;82.98
9695;BME280;4690;52.422;13.486;2023-07-20T04:28:45;100814.25;;;18.58;82.83
9695;BME280;4690;52.422;13.486;2023-07-20T04:31:13;100819.50;;;18.60;82.63
9695;BME280;4690;52.422;13.486;2023-07-20T04:33:40;100815.34;;;18.63;82.80
9695;BME280;4690;52.422;13.486;2023-07-20T04:36:06;100817.00;;;18.64;82.81
9695;BME280;4690;52.422;13.486;2023-07-20T04:38:33;100818.13;;;18.63;82.46
9695;BME280;4690;52.422;13.486;2023-07-20T04:40:59;100822.53;;;18.64;82.32
9695;BME280;4690;52.422;13.486;2023-07-20T04:43:25;100822.00;;;18.62;82.24
9695;BME280;4690;52.422;13.486;2023-07-20T04:45:51;100819.22;;;18.56;82.47
9695;BME280;4690;52.422;13.486;2023-07-20T04:48:17;100825.63;;;18.62;82.52
9695;BME280;4690;52.422;13.486;2023-07-20T04:50:45;100827.53;;;18.67;82.24
9695;BME280;4690;52.422;13.486;2023-07-20T04:53:14;100826.16;;;18.69;82.22
9695;BME280;4690;52.422;13.486;2023-07-20T04:55:40;100826.19;;;18.64;82.33
9695;BME280;4690;52.422;13.486;2023-07-20T04:58:12;100833.66;;;18.69;81.98
9695;BME280;4690;52.422;13.486;2023-07-20T05:00:38;100816.44;;;18.72;82.10
9695;BME280;4690;52.422;13.486;2023-07-20T05:03:04;100818.13;;;18.73;82.80
9695;BME280;4690;52.422;13.486;2023-07-20T05:05:31;100830.34;;;18.77;81.82
9695;BME280;4690;52.422;13.486;2023-07-20T05:07:57;100825.34;;;18.79;81.33
9695;BME280;4690;52.422;13.486;2023-07-20T05:10:24;100826.44;;;18.83;81.26
9695;BME280;4690;52.422;13.486;2023-07-20T05:12:50;100832.28;;;18.81;81.31
9695;BME280;4690;52.422;13.486;2023-07-20T05:15:16;100830.03;;;18.84;81.54
9695;BME280;4690;52.422;13.486;2023-07-20T05:17:41;100834.75;;;18.88;81.30
9695;BME280;4690;52.422;13.486;2023-07-20T05:20:07;100836.72;;;18.88;81.48
9695;BME280;4690;52.422;13.486;2023-07-20T05:22:38;100833.13;;;18.92;81.33
9695;BME280;4690;52.422;13.486;2023-07-20T05:25:09;100831.69;;;18.95;81.07
9695;BME280;4690;52.422;13.486;2023-07-20T05:27:39;100842.53;;;18.96;81.07
9695;BME280;4690;52.422;13.486;2023-07-20T05:30:07;100835.31;;;18.95;81.23
9695;BME280;4690;52.422;13.486;2023-07-20T05:32:33;100838.94;;;18.96;81.28
9695;BME280;4690;52.422;13.486;2023-07-20T05:34:59;100831.69;;;19.00;80.86
9695;BME280;4690;52.422;13.486;2023-07-20T05:37:24;100832.25;;;18.97;80.29
9695;BME280;4690;52.422;13.486;2023-07-20T05:39:50;100836.41;;;18.99;80.18
9695;BME280;4690;52.422;13.486;2023-07-20T05:42:16;100837.53;;;18.98;80.25
9695;BME280;4690;52.422;13.486;2023-07-20T05:44:42;100836.66;;;19.03;80.20
9695;BME280;4690;52.422;13.486;2023-07-20T05:47:08;100848.06;;;19.07;79.93
9695;BME280;4690;52.422;13.486;2023-07-20T05:49:37;100837.22;;;19.15;79.77
9695;BME280;4690;52.422;13.486;2023-07-20T05:52:03;100837.47;;;19.24;79.51
9695;BME280;4690;52.422;13.486;2023-07-20T05:54:28;100846.88;;;19.33;79.24
9695;BME280;4690;52.422;13.486;2023-07-20T05:56:55;100847.69;;;19.39;78.02
9695;BME280;4690;52.422;13.486;2023-07-20T05:59:20;100851.59;;;19.43;78.03
9695;BME280;4690;52.422;13.486;2023-07-20T06:01:46;100845.16;;;19.47;78.03
9695;BME280;4690;52.422;13.486;2023-07-20T06:04:15;100849.88;;;19.47;77.82
9695;BME280;4690;52.422;13.486;2023-07-20T06:06:41;100851.28;;;19.49;77.28
9695;BME280;4690;52.422;13.486;2023-07-20T06:09:07;100857.41;;;19.46;76.83
9695;BME280;4690;52.422;13.486;2023-07-20T06:11:40;100861.59;;;19.39;76.41
9695;BME280;4690;52.422;13.486;2023-07-20T06:14:06;100861.31;;;19.40;76.52
9695;BME280;4690;52.422;13.486;2023-07-20T06:16:32;100856.59;;;19.41;77.23
9695;BME280;4690;52.422;13.486;2023-07-20T06:18:59;100864.91;;;19.46;76.78
9695;BME280;4690;52.422;13.486;2023-07-20T06:21:25;100869.06;;;19.48;76.27
9695;BME280;4690;52.422;13.486;2023-07-20T06:23:51;100867.41;;;19.47;75.58
9695;BME280;4690;52.422;13.486;2023-07-20T06:26:17;100871.31;;;19.46;75.83
9695;BME280;4690;52.422;13.486;2023-07-20T06:28:42;100871.31;;;19.46;75.71
9695;BME280;4690;52.422;13.486;2023-07-20T06:31:08;100874.09;;;19.41;75.51
9695;BME280;4690;52.422;13.486;2023-07-20T06:33:34;100866.88;;;19.40;75.03
9695;BME280;4690;52.422;13.486;2023-07-20T06:36:00;100868.53;;;19.46;75.44
9695;BME280;4690;52.422;13.486;2023-07-20T06:38:26;100869.06;;;19.48;75.11
9695;BME280;4690;52.422;13.486;2023-07-20T06:40:52;100870.41;;;19.56;75.61
9695;BME280;4690;52.422;13.486;2023-07-20T06:43:18;100867.91;;;19.60;75.04
9695;BME280;4690;52.422;13.486;2023-07-20T06:45:44;100872.88;;;19.68;75.09
9695;BME280;4690;52.422;13.486;2023-07-20T06:48:10;100886.22;;;19.76;75.30
9695;BME280;4690;52.422;13.486;2023-07-20T06:50:35;100878.41;;;19.78;75.31
9695;BME280;4690;52.422;13.486;2023-07-20T06:53:01;100890.09;;;19.80;74.43
9695;BME280;4690;52.422;13.486;2023-07-20T06:55:29;100888.16;;;19.81;73.92
9695;BME280;4690;52.422;13.486;2023-07-20T06:57:55;100896.50;;;19.81;73.98
9695;BME280;4690;52.422;13.486;2023-07-20T07:00:21;100897.84;;;19.88;74.22
9695;BME280;4690;52.422;13.486;2023-07-20T07:02:46;100897.84;;;19.88;73.74
9695;BME280;4690;52.422;13.486;2023-07-20T07:05:12;100893.34;;;19.98;73.83
9695;BME280;4690;52.422;13.486;2023-07-20T07:07:41;100892.50;;;20.02;73.15
9695;BME280;4690;52.422;13.486;2023-07-20T07:10:07;100886.34;;;20.10;70.93
9695;BME280;4690;52.422;13.486;2023-07-20T07:12:34;100882.63;;;20.20;71.18
9695;BME280;4690;52.422;13.486;2023-07-20T07:15:02;100887.34;;;20.25;70.96
9695;BME280;4690;52.422;13.486;2023-07-20T07:17:28;100887.94;;;20.22;69.51
9695;BME280;4690;52.422;13.486;2023-07-20T07:19:54;100888.72;;;20.27;69.28
9695;BME280;4690;52.422;13.486;2023-07-20T07:22:22;100881.19;;;20.33;69.35
9695;BME280;4690;52.422;13.486;2023-07-20T07:24:48;100882.50;;;20.41;68.84
9695;BME280;4690;52.422;13.486;2023-07-20T07:27:13;100888.03;;;20.46;67.88
9695;BME280;4690;52.422;13.486;2023-07-20T07:29:42;100897.47;;;20.50;67.15
9695;BME280;4690;52.422;13.486;2023-07-20T07:32:10;100900.50;;;20.58;66.54
9695;BME280;4690;52.422;13.486;2023-07-20T07:34:37;100892.56;;;20.76;66.93
9695;BME280;4690;52.422;13.486;2023-07-20T07:37:04;100898.25;;;20.95;66.44
9695;BME280;4690;52.422;13.486;2023-07-20T07:39:30;100898.13;;;21.05;64.77
9695;BME280;4690;52.422;13.486;2023-07-20T07:41:56;100892.13;;;21.22;64.30
9695;BME280;4690;52.422;13.486;2023-07-20T07:44:23;100896.13;;;21.40;62.14
9695;BME280;4690;52.422;13.486;2023-07-20T07:46:49;100898.75;;;21.55;58.76
9695;BME280;4690;52.422;13.486;2023-07-20T07:49:16;100894.81;;;21.80;59.58
9695;BME280;4690;52.422;13.486;2023-07-20T07:54:09;100885.06;;;22.21;59.15
9695;BME280;4690;52.422;13.486;2023-07-20T07:56:35;100889.16;;;22.28;58.13
9695;BME280;4690;52.422;13.486;2023-07-20T07:59:01;100895.34;;;22.25;57.32
9695;BME280;4690;52.422;13.486;2023-07-20T08:01:26;100892.63;;;22.20;55.80
9695;BME280;4690;52.422;13.486;2023-07-20T08:03:52;100894.97;;;22.32;56.25
9695;BME280;4690;52.422;13.486;2023-07-20T08:06:18;100892.16;;;22.32;54.88
9695;BME280;4690;52.422;13.486;2023-07-20T08:08:43;100899.19;;;22.48;55.92
9695;BME280;4690;52.422;13.486;2023-07-20T08:11:09;100902.72;;;22.54;55.06
9695;BME280;4690;52.422;13.486;2023-07-20T08:13:36;100898.66;;;22.46;52.13
9695;BME280;4690;52.422;13.486;2023-07-20T08:16:02;100898.44;;;22.43;53.11
9695;BME280;4690;52.422;13.486;2023-07-20T08:18:28;100901.44;;;22.46;54.89
9695;BME280;4690;52.422;13.486;2023-07-20T08:20:54;100901.97;;;22.67;53.55
9695;BME280;4690;52.422;13.486;2023-07-20T08:23:20;100902.22;;;22.85;54.54
9695;BME280;4690;52.422;13.486;2023-07-20T08:25:46;100908.09;;;22.83;52.39
9695;BME280;4690;52.422;13.486;2023-07-20T08:28:15;100909.47;;;22.86;52.93
9695;BME280;4690;52.422;13.486;2023-07-20T08:30:46;100915.38;;;22.84;54.22
9695;BME280;4690;52.422;13.486;2023-07-20T08:33:17;100919.97;;;22.75;52.82
9695;BME280;4690;52.422;13.486;2023-07-20T08:35:47;100923.25;;;22.63;51.83
9695;BME280;4690;52.422;13.486;2023-07-20T08:38:13;100923.31;;;22.58;52.65
9695;BME280;4690;52.422;13.486;2023-07-20T08:40:45;100925.38;;;22.52;53.29
9695;BME280;4690;52.422;13.486;2023-07-20T08:43:12;100921.38;;;22.40;53.55
9695;BME280;4690;52.422;13.486;2023-07-20T08:45:40;100917.53;;;22.35;54.75
9695;BME280;4690;52.422;13.486;2023-07-20T08:48:07;100926.56;;;22.46;53.79
9695;BME280;4690;52.422;13.486;2023-07-20T08:50:35;100914.50;;;22.51;53.20
9695;BME280;4690;52.422;13.486;2023-07-20T08:53:02;100918.19;;;22.65;52.51
9695;BME280;4690;52.422;13.486;2023-07-20T08:55:30;100917.44;;;22.59;51.83
9695;BME280;4690;52.422;13.486;2023-07-20T08:58:00;100925.50;;;22.80;54.08
9695;BME280;4690;52.422;13.486;2023-07-20T09:00:28;100924.97;;;22.97;52.87
9695;BME280;4690;52.422;13.486;2023-07-20T09:02:58;100919.59;;;23.00;51.24
9695;BME280;4690;52.422;13.486;2023-07-20T09:05:26;100926.09;;;22.96;50.93
9695;BME280;4690;52.422;13.486;2023-07-20T09:07:52;100935.38;;;22.91;51.71
9695;BME280;4690;52.422;13.486;2023-07-20T09:10:24;100931.16;;;22.75;50.88
9695;BME280;4690;52.422;13.486;2023-07-20T09:12:50;100936.38;;;22.81;53.53
9695;BME280;4690;52.422;13.486;2023-07-20T09:15:16;100932.13;;;23.03;52.00
9695;BME280;4690;52.422;13.486;2023-07-20T09:17:47;100932.28;;;23.12;50.49
9695;BME280;4690;52.422;13.486;2023-07-20T09:20:18;100925.22;;;23.28;50.09
9695;BME280;4690;52.422;13.486;2023-07-20T09:22:45;100920.00;;;23.40;49.94
9695;BME280;4690;52.422;13.486;2023-07-20T09:25:16;100922.38;;;23.47;49.46
9695;BME280;4690;52.422;13.486;2023-07-20T09:27:47;100913.88;;;23.38;48.80
9695;BME280;4690;52.422;13.486;2023-07-20T09:30:17;100925.09;;;23.05;50.44
9695;BME280;4690;52.422;13.486;2023-07-20T09:32:48;100928.94;;;23.10;49.34
9695;BME280;4690;52.422;13.486;2023-07-20T09:35:21;100923.69;;;23.22;49.03
9695;BME280;4690;52.422;13.486;2023-07-20T09:40:21;100927.53;;;23.54;47.23
9695;BME280;4690;52.422;13.486;2023-07-20T09:42:47;100920.00;;;23.82;47.39
9695;BME280;4690;52.422;13.486;2023-07-20T09:45:14;100924.59;;;23.91;45.19
9695;BME280;4690;52.422;13.486;2023-07-20T09:47:40;100923.25;;;23.75;47.02
9695;BME280;4690;52.422;13.486;2023-07-20T09:50:08;100921.75;;;23.64;45.05
9695;BME280;4690;52.422;13.486;2023-07-20T09:52:41;100925.38;;;23.50;46.95
9695;BME280;4690;52.422;13.486;2023-07-20T09:55:10;100925.81;;;23.58;47.06
9695;BME280;4690;52.422;13.486;2023-07-20T09:57:38;100926.97;;;23.70;47.12
9695;BME280;4690;52.422;13.486;2023-07-20T10:00:07;100926.56;;;23.77;47.40
9695;BME280;4690;52.422;13.486;2023-07-20T10:02:45;100934.31;;;23.94;47.80
9695;BME280;4690;52.422;13.486;2023-07-20T10:05:16;100929.13;;;23.87;45.78
9695;BME280;4690;52.422;13.486;2023-07-20T10:07:49;100933.69;;;23.69;45.97
9695;BME280;4690;52.422;13.486;2023-07-20T10:10:18;100929.13;;;23.46;46.00
9695;BME280;4690;52.422;13.486;2023-07-20T10:12:48;100925.59;;;23.40;47.13
9695;BME280;4690;52.422;13.486;2023-07-20T10:15:24;100920.00;;;23.40;46.55
9695;BME280;4690;52.422;13.486;2023-07-20T10:18:16;100924.84;;;23.35;46.71
9695;BME280;4690;52.422;13.486;2023-07-20T10:20:46;100924.94;;;23.30;47.31
9695;BME280;4690;52.422;13.486;2023-07-20T10:23:12;100932.06;;;23.22;47.22
9695;BME280;4690;52.422;13.486;2023-07-20T10:25:40;100931.94;;;23.13;47.90
9695;BME280;4690;52.422;13.486;2023-07-20T10:28:10;100933.78;;;23.04;48.07
9695;BME280;4690;52.422;13.486;2023-07-20T10:30:37;100926.31;;;22.99;48.66
9695;BME280;4690;52.422;13.486;2023-07-20T10:33:05;100936.38;;;22.81;48.88
9695;BME280;4690;52.422;13.486;2023-07-20T10:35:53;100932.84;;;22.76;49.07
9695;BME280;4690;52.422;13.486;2023-07-20T10:38:38;100930.00;;;22.95;50.48
9695;BME280;4690;52.422;13.486;2023-07-20T10:41:17;100933.19;;;23.07;48.59
9695;BME280;4690;52.422;13.486;2023-07-20T10:43:44;100928.03;;;23.28;50.04
9695;BME280;4690;52.422;13.486;2023-07-20T10:46:12;100935.63;;;23.55;49.72
9695;BME280;4690;52.422;13.486;2023-07-20T10:49:03;100931.63;;;23.75;47.36
9695;BME280;4690;52.422;13.486;2023-07-20T10:51:30;100932.25;;;23.86;47.75
9695;BME280;4690;52.422;13.486;2023-07-20T10:54:03;100928.09;;;23.97;46.61
9695;BME280;4690;52.422;13.486;2023-07-20T10:56:29;100939.41;;;23.92;45.88
9695;BME280;4690;52.422;13.486;2023-07-20T10:58:59;100928.69;;;23.66;45.75
9695;BME280;4690;52.422;13.486;2023-07-20T11:01:30;100942.06;;;23.56;45.90
9695;BME280;4690;52.422;13.486;2023-07-20T11:04:00;100938.22;;;23.38;47.02
9695;BME280;4690;52.422;13.486;2023-07-20T11:11:30;100937.25;;;23.15;49.87
9695;BME280;4690;52.422;13.486;2023-07-20T11:14:08;100931.94;;;23.13;50.27
9695;BME280;4690;52.422;13.486;2023-07-20T11:16:45;100940.66;;;23.12;50.02
9695;BME280;4690;52.422;13.486;2023-07-20T11:19:25;100947.16;;;23.07;49.71
9695;BME280;4690;52.422;13.486;2023-07-20T11:21:54;100948.72;;;23.13;49.54
9695;BME280;4690;52.422;13.486;2023-07-20T11:24:21;100948.09;;;23.16;49.10
9695;BME280;4690;52.422;13.486;2023-07-20T11:26:52;100947.72;;;23.23;49.89
9695;BME280;4690;52.422;13.486;2023-07-20T11:29:21;100951.97;;;23.20;49.39
9695;BME280;4690;52.422;13.486;2023-07-20T11:31:49;100953.66;;;23.02;48.70
9695;BME280;4690;52.422;13.486;2023-07-20T11:34:20;100954.09;;;23.10;50.96
9695;BME280;4690;52.422;13.486;2023-07-20T11:36:51;100949.78;;;23.17;49.46
9695;BME280;4690;52.422;13.486;2023-07-20T11:39:21;100947.00;;;23.17;49.29
9695;BME280;4690;52.422;13.486;2023-07-20T11:41:50;100949.16;;;23.20;49.63
9695;BME280;4690;52.422;13.486;2023-07-20T11:44:21;100949.38;;;23.24;49.73
9695;BME280;4690;52.422;13.486;2023-07-20T11:47:14;100948.63;;;23.18;49.95
9695;BME280;4690;52.422;13.486;2023-07-20T11:49:44;100941.91;;;23.19;49.88
9695;BME280;4690;52.422;13.486;2023-07-20T11:52:16;100953.63;;;23.21;50.61
9695;BME280;4690;52.422;13.486;2023-07-20T11:54:43;100939.81;;;23.11;49.31
9695;BME280;4690;52.422;13.486;2023-07-20T11:57:27;100941.69;;;23.16;49.69
9695;BME280;4690;52.422;13.486;2023-07-20T12:00:02;100956.81;;;23.15;48.94
9695;BME280;4690;52.422;13.486;2023-07-20T12:02:38;100940.66;;;22.93;48.32
9695;BME280;4690;52.422;13.486;2023-07-20T12:05:07;100946.41;;;22.82;49.65
9695;BME280;4690;52.422;13.486;2023-07-20T12:07:36;100951.03;;;22.92;50.39
9695;BME280;4690;52.422;13.486;2023-07-20T12:10:10;100938.22;;;22.72;49.91
9695;BME280;4690;52.422;13.486;2023-07-20T12:12:44;100946.41;;;23.01;51.98
9695;BME280;4690;52.422;13.486;2023-07-20T12:15:37;100950.38;;;23.14;50.13
9695;BME280;4690;52.422;13.486;2023-07-20T12:18:03;100935.72;;;23.36;50.07
9695;BME280;4690;52.422;13.486;2023-07-20T12:20:36;100949.19;;;23.34;45.91
9695;BME280;4690;52.422;13.486;2023-07-20T12:23:11;100943.16;;;23.27;47.04
9695;BME280;4690;52.422;13.486;2023-07-20T12:28:09;100939.44;;;23.18;48.11
9695;BME280;4690;52.422;13.486;2023-07-20T12:30:40;100948.34;;;23.34;50.32
9695;BME280;4690;52.422;13.486;2023-07-20T12:33:06;100948.88;;;23.36;48.40
9695;BME280;4690;52.422;13.486;2023-07-20T12:35:33;100938.59;;;23.31;46.96
9695;BME280;4690;52.422;13.486;2023-07-20T12:38:00;100948.06;;;23.35;47.43
9695;BME280;4690;52.422;13.486;2023-07-20T12:40:26;100945.25;;;23.35;45.97
9695;BME280;4690;52.422;13.486;2023-07-20T12:42:52;100947.19;;;23.21;47.02
9695;BME280;4690;52.422;13.486;2023-07-20T12:45:18;100943.44;;;23.12;48.02
9695;BME280;4690;52.422;13.486;2023-07-20T12:47:43;100942.25;;;22.99;48.48
9695;BME280;4690;52.422;13.486;2023-07-20T12:50:11;100943.91;;;23.00;47.41
9695;BME280;4690;52.422;13.486;2023-07-20T12:52:37;100944.44;;;23.02;48.30
9695;BME280;4690;52.422;13.486;2023-07-20T12:55:05;100945.44;;;22.92;48.21
9695;BME280;4690;52.422;13.486;2023-07-20T12:57:33;100940.00;;;23.01;49.62
9695;BME280;4690;52.422;13.486;2023-07-20T12:59:59;100943.94;;;23.14;49.61
9695;BME280;4690;52.422;13.486;2023-07-20T13:02:25;100950.53;;;23.37;49.13
9695;BME280;4690;52.422;13.486;2023-07-20T13:04:50;100943.63;;;23.62;50.19
9695;BME280;4690;52.422;13.486;2023-07-20T13:07:16;100943.75;;;23.98;49.61
9695;BME280;4690;52.422;13.486;2023-07-20T13:09:42;100934.78;;;24.24;46.06
9695;BME280;4690;52.422;13.486;2023-07-20T13:12:08;100937.38;;;24.48;45.23
9695;BME280;4690;52.422;13.486;2023-07-20T13:14:34;100935.22;;;24.67;42.54
9695;BME280;4690;52.422;13.486;2023-07-20T13:16:59;100924.72;;;24.73;42.17
9695;BME280;4690;52.422;13.486;2023-07-20T13:19:25;100936.50;;;24.83;41.67
9695;BME280;4690;52.422;13.486;2023-07-20T13:21:51;100922.22;;;24.94;39.54
9695;BME280;4690;52.422;13.486;2023-07-20T13:24:17;100923.56;;;24.96;41.54
9695;BME280;4690;52.422;13.486;2023-07-20T13:26:43;100925.91;;;25.25;41.03
9695;BME280;4690;52.422;13.486;2023-07-20T13:29:08;100919.59;;;25.51;40.37
9695;BME280;4690;52.422;13.486;2023-07-20T13:31:34;100919.66;;;25.68;39.10
9695;BME280;4690;52.422;13.486;2023-07-20T13:34:00;100918.22;;;25.80;37.18
9695;BME280;4690;52.422;13.486;2023-07-20T13:36:25;100913.00;;;25.96;36.74
9695;BME280;4690;52.422;13.486;2023-07-20T13:38:51;100906.38;;;25.91;36.28